sensor_id;sensor_type;location;lat;lon;timestamp;temperature;humidity
19970;DHT22;10146;47.754;9.566;2023-02-28T00:00:22;-0.10;99.90
19970;DHT22;10146;47.754;9.566;2023-02-28T00:02:48;0.00;99.90
19970;DHT22;10146;47.754;9.566;2023-02-28T00:05:16;-0.10;99.90
19970;DHT22;10146;47.754;9.566;2023-02-28T00:07:42;-0.10;99.90
19970;DHT22;10146;47.754;9.566;2023-02-28T00:10:11;-0.10;99.90
19970;DHT22;10146;47.754;9.566;2023-02-28T00:12:37;0.00;99.90
19970;DHT22;10146;47.754;9.566;2023-02-28T00:15:10;-0.10;99.90
19970;DHT22;10146;47.754;9.566;2023-02-28T00:17:37;-0.10;99.90
19970;DHT22;10146;47.754;9.566;2023-02-28T00:20:03;-0.10;99.90
19970;DHT22;10146;47.754;9.566;2023-02-28T00:22:39;-0.10;99.90
19970;DHT22;10146;47.754;9.566;2023-02-28T00:25:06;-0.10;99.90
19970;DHT22;10146;47.754;9.566;2023-02-28T00:27:33;-0.10;99.90
19970;DHT22;10146;47.754;9.566;2023-02-28T00:29:59;-0.10;99.90
19970;DHT22;10146;47.754;9.566;2023-02-28T00:32:25;0.00;99.90
19970;DHT22;10146;47.754;9.566;2023-02-28T00:34:50;0.00;99.90
19970;DHT22;10146;47.754;9.566;2023-02-28T00:37:16;-0.10;99.90
19970;DHT22;10146;47.754;9.566;2023-02-28T00:39:42;0.00;99.90
19970;DHT22;10146;47.754;9.566;2023-02-28T00:42:08;-0.10;99.90
19970;DHT22;10146;47.754;9.566;2023-02-28T00:44:33;0.10;99.90
19970;DHT22;10146;47.754;9.566;2023-02-28T00:47:00;-0.10;99.90
19970;DHT22;10146;47.754;9.566;2023-02-28T00:49:27;0.00;99.90
19970;DHT22;10146;47.754;9.566;2023-02-28T00:51:54;-0.10;99.90
19970;DHT22;10146;47.754;9.566;2023-02-28T00:54:20;-0.20;99.90
19970;DHT22;10146;47.754;9.566;2023-02-28T00:56:46;-0.10;99.90
19970;DHT22;10146;47.754;9.566;2023-02-28T00:59:13;-0.10;99.90
19970;DHT22;10146;47.754;9.566;2023-02-28T01:01:39;-0.20;99.90
19970;DHT22;10146;47.754;9.566;2023-02-28T01:04:04;-0.10;99.90
19970;DHT22;10146;47.754;9.566;2023-02-28T01:06:31;-0.10;99.90
19970;DHT22;10146;47.754;9.566;2023-02-28T01:08:57;-0.20;99.90
19970;DHT22;10146;47.754;9.566;2023-02-28T01:11:23;-0.10;99.90
19970;DHT22;10146;47.754;9.566;2023-02-28T01:13:48;-0.10;99.90
19970;DHT22;10146;47.754;9.566;2023-02-28T01:16:14;-0.20;99.90
19970;DHT22;10146;47.754;9.566;2023-02-28T01:18:40;-0.10;99.90
19970;DHT22;10146;47.754;9.566;2023-02-28T01:21:08;-0.20;99.90
19970;DHT22;10146;47.754;9.566;2023-02-28T01:23:34;-0.20;99.90
19970;DHT22;10146;47.754;9.566;2023-02-28T01:26:06;-0.10;99.90
19970;DHT22;10146;47.754;9.566;2023-02-28T01:28:32;0.00;99.90
19970;DHT22;10146;47.754;9.566;2023-02-28T01:30:57;-0.20;99.90
19970;DHT22;10146;47.754;9.566;2023-02-28T01:33:23;-0.20;99.90
19970;DHT22;10146;47.754;9.566;2023-02-28T01:35:49;-0.30;99.90
19970;DHT22;10146;47.754;9.566;2023-02-28T01:38:14;-0.20;99.90
19970;DHT22;10146;47.754;9.566;2023-02-28T01:40:40;-0.10;99.90
19970;DHT22;10146;47.754;9.566;2023-02-28T01:46:09;-0.10;99.90
19970;DHT22;10146;47.754;9.566;2023-02-28T01:48:38;0.00;99.90
19970;DHT22;10146;47.754;9.566;2023-02-28T01:51:10;0.00;99.90
19970;DHT22;10146;47.754;9.566;2023-02-28T01:53:45;0.00;99.90
19970;DHT22;10146;47.754;9.566;2023-02-28T01:56:14;0.10;99.90
19970;DHT22;10146;47.754;9.566;2023-02-28T01:58:46;-0.10;99.90
19970;DHT22;10146;47.754;9.566;2023-02-28T02:01:12;-0.10;99.90
19970;DHT22;10146;47.754;9.566;2023-02-28T02:03:50;0.00;99.90
19970;DHT22;10146;47.754;9.566;2023-02-28T02:06:25;0.00;99.90
19970;DHT22;10146;47.754;9.566;2023-02-28T02:08:51;-0.10;99.90
19970;DHT22;10146;47.754;9.566;2023-02-28T02:11:19;-0.10;99.90
19970;DHT22;10146;47.754;9.566;2023-02-28T02:14:10;-0.10;99.90
19970;DHT22;10146;47.754;9.566;2023-02-28T02:19:42;-0.10;99.90
19970;DHT22;10146;47.754;9.566;2023-02-28T02:28:08;-0.20;99.90
19970;DHT22;10146;47.754;9.566;2023-02-28T02:36:53;-0.10;99.90
19970;DHT22;10146;47.754;9.566;2023-02-28T02:42:15;-0.20;99.90
19970;DHT22;10146;47.754;9.566;2023-02-28T02:44:53;-0.10;99.90
19970;DHT22;10146;47.754;9.566;2023-02-28T02:47:26;-0.20;99.90
19970;DHT22;10146;47.754;9.566;2023-02-28T02:49:55;-0.20;99.90
19970;DHT22;10146;47.754;9.566;2023-02-28T02:52:28;-0.10;99.90
19970;DHT22;10146;47.754;9.566;2023-02-28T02:54:56;-0.20;99.90
19970;DHT22;10146;47.754;9.566;2023-02-28T02:57:32;-0.30;99.90
19970;DHT22;10146;47.754;9.566;2023-02-28T03:00:01;-0.30;99.90
19970;DHT22;10146;47.754;9.566;2023-02-28T03:02:29;-0.30;99.90
19970;DHT22;10146;47.754;9.566;2023-02-28T03:05:02;-0.20;99.90
19970;DHT22;10146;47.754;9.566;2023-02-28T03:07:29;-0.20;99.90
19970;DHT22;10146;47.754;9.566;2023-02-28T03:09:56;-0.20;99.90
19970;DHT22;10146;47.754;9.566;2023-02-28T03:12:31;-0.30;99.90
19970;DHT22;10146;47.754;9.566;2023-02-28T03:15:21;-0.30;99.90
19970;DHT22;10146;47.754;9.566;2023-02-28T03:20:41;-0.20;99.90
19970;DHT22;10146;47.754;9.566;2023-02-28T03:23:21;-0.20;99.90
19970;DHT22;10146;47.754;9.566;2023-02-28T03:25:56;-0.30;99.90
19970;DHT22;10146;47.754;9.566;2023-02-28T03:31:12;-0.30;99.90
19970;DHT22;10146;47.754;9.566;2023-02-28T03:36:31;-0.40;99.90
19970;DHT22;10146;47.754;9.566;2023-02-28T03:39:01;-0.40;99.90
19970;DHT22;10146;47.754;9.566;2023-02-28T03:41:45;-0.40;99.90
19970;DHT22;10146;47.754;9.566;2023-02-28T03:44:22;-0.30;99.90
19970;DHT22;10146;47.754;9.566;2023-02-28T03:47:03;-0.30;99.90
19970;DHT22;10146;47.754;9.566;2023-02-28T03:49:44;-0.40;99.90
19970;DHT22;10146;47.754;9.566;2023-02-28T03:52:11;-0.30;99.90
19970;DHT22;10146;47.754;9.566;2023-02-28T03:54:50;-0.40;99.90
19970;DHT22;10146;47.754;9.566;2023-02-28T04:00:35;-0.40;99.90
19970;DHT22;10146;47.754;9.566;2023-02-28T04:03:01;-0.30;99.90
19970;DHT22;10146;47.754;9.566;2023-02-28T04:05:27;-0.30;99.90
19970;DHT22;10146;47.754;9.566;2023-02-28T04:07:54;-0.40;99.90
19970;DHT22;10146;47.754;9.566;2023-02-28T04:10:28;-0.40;99.90
19970;DHT22;10146;47.754;9.566;2023-02-28T04:12:53;-0.40;99.90
19970;DHT22;10146;47.754;9.566;2023-02-28T04:15:19;-0.30;99.90
19970;DHT22;10146;47.754;9.566;2023-02-28T04:17:48;-0.30;99.90
19970;DHT22;10146;47.754;9.566;2023-02-28T04:20:13;-0.40;99.90
19970;DHT22;10146;47.754;9.566;2023-02-28T04:22:39;-0.30;99.90
19970;DHT22;10146;47.754;9.566;2023-02-28T04:25:05;-0.30;99.90
19970;DHT22;10146;47.754;9.566;2023-02-28T04:27:31;-0.30;99.90
19970;DHT22;10146;47.754;9.566;2023-02-28T04:29:56;-0.40;99.90
19970;DHT22;10146;47.754;9.566;2023-02-28T04:32:22;-0.20;99.90
19970;DHT22;10146;47.754;9.566;2023-02-28T04:34:47;-0.30;99.90
19970;DHT22;10146;47.754;9.566;2023-02-28T04:37:13;-0.20;99.90
19970;DHT22;10146;47.754;9.566;2023-02-28T04:39:39;-0.20;99.90
19970;DHT22;10146;47.754;9.566;2023-02-28T04:42:05;-0.30;99.90
19970;DHT22;10146;47.754;9.566;2023-02-28T04:44:30;-0.40;99.90
19970;DHT22;10146;47.754;9.566;2023-02-28T04:46:56;-0.40;99.90
19970;DHT22;10146;47.754;9.566;2023-02-28T04:49:22;-0.50;99.90
19970;DHT22;10146;47.754;9.566;2023-02-28T04:51:48;-0.50;99.90
19970;DHT22;10146;47.754;9.566;2023-02-28T04:54:15;-0.40;99.90
19970;DHT22;10146;47.754;9.566;2023-02-28T04:56:41;-0.40;99.90
19970;DHT22;10146;47.754;9.566;2023-02-28T04:59:07;-0.30;99.90
19970;DHT22;10146;47.754;9.566;2023-02-28T05:01:33;-0.30;99.90
19970;DHT22;10146;47.754;9.566;2023-02-28T05:04:01;-0.30;99.90
19970;DHT22;10146;47.754;9.566;2023-02-28T05:06:28;-0.30;99.90
19970;DHT22;10146;47.754;9.566;2023-02-28T05:08:55;-0.50;99.90
19970;DHT22;10146;47.754;9.566;2023-02-28T05:11:24;-0.50;99.90
19970;DHT22;10146;47.754;9.566;2023-02-28T05:13:51;-0.50;99.90
19970;DHT22;10146;47.754;9.566;2023-02-28T05:16:18;-0.40;99.90
19970;DHT22;10146;47.754;9.566;2023-02-28T05:18:44;-0.40;99.90
19970;DHT22;10146;47.754;9.566;2023-02-28T05:21:30;-0.30;99.90
19970;DHT22;10146;47.754;9.566;2023-02-28T05:23:58;-0.40;99.90
19970;DHT22;10146;47.754;9.566;2023-02-28T05:26:25;-0.30;99.90
19970;DHT22;10146;47.754;9.566;2023-02-28T05:28:50;-0.30;99.90
19970;DHT22;10146;47.754;9.566;2023-02-28T05:31:16;-0.30;99.90
19970;DHT22;10146;47.754;9.566;2023-02-28T05:33:42;-0.40;99.90
19970;DHT22;10146;47.754;9.566;2023-02-28T05:36:08;-0.50;99.90
19970;DHT22;10146;47.754;9.566;2023-02-28T05:38:33;-0.40;99.90
19970;DHT22;10146;47.754;9.566;2023-02-28T05:40:59;-0.30;99.90
19970;DHT22;10146;47.754;9.566;2023-02-28T05:43:27;-0.50;99.90
19970;DHT22;10146;47.754;9.566;2023-02-28T05:45:52;-0.40;99.90
19970;DHT22;10146;47.754;9.566;2023-02-28T05:48:18;-0.50;99.90
19970;DHT22;10146;47.754;9.566;2023-02-28T05:50:44;-0.50;99.90
19970;DHT22;10146;47.754;9.566;2023-02-28T05:53:11;-0.50;99.90
19970;DHT22;10146;47.754;9.566;2023-02-28T05:55:37;-0.50;99.90
19970;DHT22;10146;47.754;9.566;2023-02-28T05:58:03;-0.50;99.90
19970;DHT22;10146;47.754;9.566;2023-02-28T06:00:29;-0.40;99.90
19970;DHT22;10146;47.754;9.566;2023-02-28T06:02:55;-0.40;99.90
19970;DHT22;10146;47.754;9.566;2023-02-28T06:05:23;-0.50;99.90
19970;DHT22;10146;47.754;9.566;2023-02-28T06:07:49;-0.50;99.90
19970;DHT22;10146;47.754;9.566;2023-02-28T06:10:15;-0.50;99.90
19970;DHT22;10146;47.754;9.566;2023-02-28T06:12:41;-0.50;99.90
19970;DHT22;10146;47.754;9.566;2023-02-28T06:15:11;-0.50;99.90
19970;DHT22;10146;47.754;9.566;2023-02-28T06:17:37;-0.60;99.90
19970;DHT22;10146;47.754;9.566;2023-02-28T06:20:03;-0.60;99.90
19970;DHT22;10146;47.754;9.566;2023-02-28T06:22:29;-0.60;99.90
19970;DHT22;10146;47.754;9.566;2023-02-28T06:24:55;-0.60;99.90
19970;DHT22;10146;47.754;9.566;2023-02-28T06:27:22;-0.60;99.90
19970;DHT22;10146;47.754;9.566;2023-02-28T06:29:48;-0.70;99.90
19970;DHT22;10146;47.754;9.566;2023-02-28T06:32:13;-0.70;99.90
19970;DHT22;10146;47.754;9.566;2023-02-28T06:34:39;-0.80;99.90
19970;DHT22;10146;47.754;9.566;2023-02-28T06:37:04;-0.70;99.90
19970;DHT22;10146;47.754;9.566;2023-02-28T06:39:31;-0.60;99.90
19970;DHT22;10146;47.754;9.566;2023-02-28T06:41:56;-0.50;99.90
19970;DHT22;10146;47.754;9.566;2023-02-28T06:44:23;-0.40;99.90
19970;DHT22;10146;47.754;9.566;2023-02-28T06:46:49;-0.60;99.90
19970;DHT22;10146;47.754;9.566;2023-02-28T06:49:15;-0.40;99.90
19970;DHT22;10146;47.754;9.566;2023-02-28T06:51:43;-0.40;99.90
19970;DHT22;10146;47.754;9.566;2023-02-28T06:54:12;-0.50;99.90
19970;DHT22;10146;47.754;9.566;2023-02-28T06:56:38;-0.50;99.90
19970;DHT22;10146;47.754;9.566;2023-02-28T06:59:04;-0.50;99.90
19970;DHT22;10146;47.754;9.566;2023-02-28T07:01:30;-0.40;99.90
19970;DHT22;10146;47.754;9.566;2023-02-28T07:03:58;-0.30;99.90
19970;DHT22;10146;47.754;9.566;2023-02-28T07:06:25;-0.30;99.90
19970;DHT22;10146;47.754;9.566;2023-02-28T07:08:52;-0.30;99.90
19970;DHT22;10146;47.754;9.566;2023-02-28T07:11:18;-0.30;99.90
19970;DHT22;10146;47.754;9.566;2023-02-28T07:13:44;-0.50;99.90
19970;DHT22;10146;47.754;9.566;2023-02-28T07:16:11;-0.50;99.90
19970;DHT22;10146;47.754;9.566;2023-02-28T07:18:37;-0.40;99.90
19970;DHT22;10146;47.754;9.566;2023-02-28T07:21:04;-0.40;99.90
19970;DHT22;10146;47.754;9.566;2023-02-28T07:23:31;-0.30;99.90
19970;DHT22;10146;47.754;9.566;2023-02-28T07:25:56;-0.10;99.90
19970;DHT22;10146;47.754;9.566;2023-02-28T07:28:22;-0.10;99.90
19970;DHT22;10146;47.754;9.566;2023-02-28T07:30:47;-0.20;99.90
19970;DHT22;10146;47.754;9.566;2023-02-28T07:33:13;-0.10;99.90
19970;DHT22;10146;47.754;9.566;2023-02-28T07:35:39;-0.10;99.90
19970;DHT22;10146;47.754;9.566;2023-02-28T07:38:05;-0.20;99.90
19970;DHT22;10146;47.754;9.566;2023-02-28T07:40:33;-0.30;99.90
19970;DHT22;10146;47.754;9.566;2023-02-28T07:43:00;-0.20;99.90
19970;DHT22;10146;47.754;9.566;2023-02-28T07:45:26;-0.20;99.90
19970;DHT22;10146;47.754;9.566;2023-02-28T07:47:54;-0.20;99.90
19970;DHT22;10146;47.754;9.566;2023-02-28T07:50:20;-0.20;99.90
19970;DHT22;10146;47.754;9.566;2023-02-28T07:52:45;-0.20;99.90
19970;DHT22;10146;47.754;9.566;2023-02-28T07:55:11;-0.20;99.90
19970;DHT22;10146;47.754;9.566;2023-02-28T07:57:37;-0.20;99.90
19970;DHT22;10146;47.754;9.566;2023-02-28T08:00:08;-0.10;99.90
19970;DHT22;10146;47.754;9.566;2023-02-28T08:02:35;-0.10;99.90
19970;DHT22;10146;47.754;9.566;2023-02-28T08:05:01;-0.10;99.90
19970;DHT22;10146;47.754;9.566;2023-02-28T08:07:27;-0.10;99.90
19970;DHT22;10146;47.754;9.566;2023-02-28T08:09:52;-0.10;99.90
19970;DHT22;10146;47.754;9.566;2023-02-28T08:12:18;0.00;99.90
19970;DHT22;10146;47.754;9.566;2023-02-28T08:14:44;0.00;99.90
19970;DHT22;10146;47.754;9.566;2023-02-28T08:17:10;0.00;99.90
19970;DHT22;10146;47.754;9.566;2023-02-28T08:19:36;0.10;99.90
19970;DHT22;10146;47.754;9.566;2023-02-28T08:22:02;0.00;99.90
19970;DHT22;10146;47.754;9.566;2023-02-28T08:24:28;0.00;99.90
19970;DHT22;10146;47.754;9.566;2023-02-28T08:26:54;0.20;99.90
19970;DHT22;10146;47.754;9.566;2023-02-28T08:29:19;0.10;99.90
19970;DHT22;10146;47.754;9.566;2023-02-28T08:31:45;0.20;99.90
19970;DHT22;10146;47.754;9.566;2023-02-28T08:34:13;0.10;99.90
19970;DHT22;10146;47.754;9.566;2023-02-28T08:36:39;0.10;99.90
19970;DHT22;10146;47.754;9.566;2023-02-28T08:39:05;0.10;99.90
19970;DHT22;10146;47.754;9.566;2023-02-28T08:41:31;0.10;99.90
19970;DHT22;10146;47.754;9.566;2023-02-28T08:43:56;0.20;99.90
19970;DHT22;10146;47.754;9.566;2023-02-28T08:46:23;0.10;99.90
19970;DHT22;10146;47.754;9.566;2023-02-28T08:48:52;0.20;99.90
19970;DHT22;10146;47.754;9.566;2023-02-28T08:51:19;0.30;99.90
19970;DHT22;10146;47.754;9.566;2023-02-28T08:54:00;0.40;99.90
19970;DHT22;10146;47.754;9.566;2023-02-28T08:56:27;0.40;99.90
19970;DHT22;10146;47.754;9.566;2023-02-28T08:58:55;0.20;99.90
19970;DHT22;10146;47.754;9.566;2023-02-28T09:01:30;0.30;99.90
19970;DHT22;10146;47.754;9.566;2023-02-28T09:03:57;0.40;99.90
19970;DHT22;10146;47.754;9.566;2023-02-28T09:06:26;0.40;99.90
19970;DHT22;10146;47.754;9.566;2023-02-28T09:08:52;0.40;99.90
19970;DHT22;10146;47.754;9.566;2023-02-28T09:11:18;0.40;99.90
19970;DHT22;10146;47.754;9.566;2023-02-28T09:13:44;0.50;99.90
19970;DHT22;10146;47.754;9.566;2023-02-28T09:16:13;0.50;99.90
19970;DHT22;10146;47.754;9.566;2023-02-28T09:18:39;0.40;99.90
19970;DHT22;10146;47.754;9.566;2023-02-28T09:21:07;0.50;99.90
19970;DHT22;10146;47.754;9.566;2023-02-28T09:23:33;0.60;99.90
19970;DHT22;10146;47.754;9.566;2023-02-28T09:25:58;0.60;99.90
19970;DHT22;10146;47.754;9.566;2023-02-28T09:28:24;0.80;99.90
19970;DHT22;10146;47.754;9.566;2023-02-28T09:30:52;0.70;99.90
19970;DHT22;10146;47.754;9.566;2023-02-28T09:33:19;0.60;99.90
19970;DHT22;10146;47.754;9.566;2023-02-28T09:35:47;0.80;99.90
19970;DHT22;10146;47.754;9.566;2023-02-28T09:38:13;0.80;99.90
19970;DHT22;10146;47.754;9.566;2023-02-28T09:43:15;0.70;99.90
19970;DHT22;10146;47.754;9.566;2023-02-28T09:45:47;0.70;99.90
19970;DHT22;10146;47.754;9.566;2023-02-28T09:48:20;0.70;99.90
19970;DHT22;10146;47.754;9.566;2023-02-28T09:50:56;0.80;99.90
19970;DHT22;10146;47.754;9.566;2023-02-28T09:53:33;0.70;99.90
19970;DHT22;10146;47.754;9.566;2023-02-28T09:56:07;0.80;99.90
19970;DHT22;10146;47.754;9.566;2023-02-28T09:58:49;0.70;99.90
19970;DHT22;10146;47.754;9.566;2023-02-28T10:01:28;0.90;99.90
19970;DHT22;10146;47.754;9.566;2023-02-28T10:04:00;1.00;99.90
19970;DHT22;10146;47.754;9.566;2023-02-28T10:06:33;1.10;99.90
19970;DHT22;10146;47.754;9.566;2023-02-28T10:09:11;1.10;99.90
19970;DHT22;10146;47.754;9.566;2023-02-28T10:11:40;1.20;99.90
19970;DHT22;10146;47.754;9.566;2023-02-28T10:14:21;1.40;99.90
19970;DHT22;10146;47.754;9.566;2023-02-28T10:17:12;1.30;99.90
19970;DHT22;10146;47.754;9.566;2023-02-28T10:25:28;1.40;99.90
19970;DHT22;10146;47.754;9.566;2023-02-28T10:27:58;1.40;99.90
19970;DHT22;10146;47.754;9.566;2023-02-28T10:30:26;1.60;99.90
19970;DHT22;10146;47.754;9.566;2023-02-28T10:32:52;1.40;99.90
19970;DHT22;10146;47.754;9.566;2023-02-28T10:35:23;1.40;99.90
19970;DHT22;10146;47.754;9.566;2023-02-28T10:37:54;1.40;99.90
19970;DHT22;10146;47.754;9.566;2023-02-28T10:42:59;1.40;99.90
19970;DHT22;10146;47.754;9.566;2023-02-28T10:45:28;1.60;99.90
19970;DHT22;10146;47.754;9.566;2023-02-28T10:47:55;1.70;99.90
19970;DHT22;10146;47.754;9.566;2023-02-28T10:50:37;1.70;99.90
19970;DHT22;10146;47.754;9.566;2023-02-28T11:03:42;1.40;99.90
19970;DHT22;10146;47.754;9.566;2023-02-28T11:06:17;1.60;99.90
19970;DHT22;10146;47.754;9.566;2023-02-28T11:08:50;1.80;99.90
19970;DHT22;10146;47.754;9.566;2023-02-28T11:11:16;1.80;99.90
19970;DHT22;10146;47.754;9.566;2023-02-28T11:13:43;1.90;99.90
19970;DHT22;10146;47.754;9.566;2023-02-28T11:16:11;2.00;99.90
19970;DHT22;10146;47.754;9.566;2023-02-28T11:18:53;2.10;99.90
19970;DHT22;10146;47.754;9.566;2023-02-28T11:21:30;2.00;99.90
19970;DHT22;10146;47.754;9.566;2023-02-28T11:24:21;2.10;99.90
19970;DHT22;10146;47.754;9.566;2023-02-28T11:26:49;2.30;99.90
19970;DHT22;10146;47.754;9.566;2023-02-28T11:29:24;2.30;99.90
19970;DHT22;10146;47.754;9.566;2023-02-28T11:34:34;2.20;99.90
19970;DHT22;10146;47.754;9.566;2023-02-28T11:37:01;2.40;99.90
19970;DHT22;10146;47.754;9.566;2023-02-28T11:39:31;2.30;99.90
19970;DHT22;10146;47.754;9.566;2023-02-28T11:53:05;2.60;99.90
19970;DHT22;10146;47.754;9.566;2023-02-28T11:58:33;2.70;99.90
19970;DHT22;10146;47.754;9.566;2023-02-28T12:06:40;2.70;99.90
19970;DHT22;10146;47.754;9.566;2023-02-28T12:12:10;2.70;99.90
19970;DHT22;10146;47.754;9.566;2023-02-28T12:17:50;2.70;99.90
19970;DHT22;10146;47.754;9.566;2023-02-28T12:29:14;2.90;99.90
19970;DHT22;10146;47.754;9.566;2023-02-28T12:31:48;2.90;99.90
19970;DHT22;10146;47.754;9.566;2023-02-28T12:34:42;2.90;99.90
19970;DHT22;10146;47.754;9.566;2023-02-28T12:37:28;2.70;99.90
19970;DHT22;10146;47.754;9.566;2023-02-28T12:40:02;2.80;99.90
19970;DHT22;10146;47.754;9.566;2023-02-28T12:42:38;3.00;99.90
19970;DHT22;10146;47.754;9.566;2023-02-28T12:45:05;2.80;99.90
19970;DHT22;10146;47.754;9.566;2023-02-28T12:47:34;2.90;99.90
19970;DHT22;10146;47.754;9.566;2023-02-28T12:50:04;3.10;99.90
19970;DHT22;10146;47.754;9.566;2023-02-28T13:03:28;3.30;99.90
19970;DHT22;10146;47.754;9.566;2023-02-28T13:09:10;3.00;99.90
19970;DHT22;10146;47.754;9.566;2023-02-28T13:11:54;3.00;99.90
19970;DHT22;10146;47.754;9.566;2023-02-28T13:19:26;3.30;99.90
19970;DHT22;10146;47.754;9.566;2023-02-28T13:21:54;3.30;99.90
19970;DHT22;10146;47.754;9.566;2023-02-28T13:24:45;3.30;99.90
19970;DHT22;10146;47.754;9.566;2023-02-28T13:27:24;3.50;99.90
19970;DHT22;10146;47.754;9.566;2023-02-28T13:29:56;3.50;99.90
19970;DHT22;10146;47.754;9.566;2023-02-28T13:39:53;3.50;99.90
19970;DHT22;10146;47.754;9.566;2023-02-28T13:42:55;3.40;99.90
19970;DHT22;10146;47.754;9.566;2023-02-28T13:45:27;3.10;99.90
19970;DHT22;10146;47.754;9.566;2023-02-28T13:48:03;3.10;99.90
19970;DHT22;10146;47.754;9.566;2023-02-28T13:50:38;3.00;99.90
19970;DHT22;10146;47.754;9.566;2023-02-28T14:06:30;3.00;99.90
19970;DHT22;10146;47.754;9.566;2023-02-28T14:11:52;2.70;99.90
19970;DHT22;10146;47.754;9.566;2023-02-28T14:17:05;3.00;99.90
19970;DHT22;10146;47.754;9.566;2023-02-28T14:19:32;3.00;99.90
19970;DHT22;10146;47.754;9.566;2023-02-28T14:22:05;3.10;99.90
19970;DHT22;10146;47.754;9.566;2023-02-28T14:27:32;3.10;99.90
19970;DHT22;10146;47.754;9.566;2023-02-28T14:30:36;3.10;99.90
19970;DHT22;10146;47.754;9.566;2023-02-28T14:39:11;3.20;99.90
19970;DHT22;10146;47.754;9.566;2023-02-28T14:41:40;3.10;99.90
19970;DHT22;10146;47.754;9.566;2023-02-28T14:44:24;3.10;99.90
19970;DHT22;10146;47.754;9.566;2023-02-28T14:46:56;3.10;99.90
19970;DHT22;10146;47.754;9.566;2023-02-28T14:49:36;3.00;99.90
19970;DHT22;10146;47.754;9.566;2023-02-28T14:52:14;2.90;99.90
19970;DHT22;10146;47.754;9.566;2023-02-28T14:54:40;2.90;99.90
19970;DHT22;10146;47.754;9.566;2023-02-28T14:57:18;2.90;99.90
19970;DHT22;10146;47.754;9.566;2023-02-28T14:59:45;2.90;99.90
19970;DHT22;10146;47.754;9.566;2023-02-28T15:02:21;2.80;99.90
19970;DHT22;10146;47.754;9.566;2023-02-28T15:05:01;2.60;99.90
19970;DHT22;10146;47.754;9.566;2023-02-28T15:07:27;2.80;99.90
19970;DHT22;10146;47.754;9.566;2023-02-28T15:12:55;2.80;99.90
19970;DHT22;10146;47.754;9.566;2023-02-28T15:15:44;2.70;99.90
19970;DHT22;10146;47.754;9.566;2023-02-28T15:20:53;2.70;99.90
19970;DHT22;10146;47.754;9.566;2023-02-28T15:23:20;2.70;99.90
19970;DHT22;10146;47.754;9.566;2023-02-28T15:25:47;2.60;99.90
19970;DHT22;10146;47.754;9.566;2023-02-28T15:28:16;2.60;99.90
19970;DHT22;10146;47.754;9.566;2023-02-28T15:30:56;2.50;99.90
19970;DHT22;10146;47.754;9.566;2023-02-28T15:33:30;2.40;99.90
19970;DHT22;10146;47.754;9.566;2023-02-28T15:36:16;2.40;99.90
19970;DHT22;10146;47.754;9.566;2023-02-28T15:38:43;2.40;99.90
19970;DHT22;10146;47.754;9.566;2023-02-28T15:41:41;2.30;99.90
19970;DHT22;10146;47.754;9.566;2023-02-28T15:44:26;2.50;99.90
19970;DHT22;10146;47.754;9.566;2023-02-28T15:47:01;2.40;99.90
19970;DHT22;10146;47.754;9.566;2023-02-28T15:49:29;2.20;99.90
19970;DHT22;10146;47.754;9.566;2023-02-28T15:51:59;2.30;99.90
19970;DHT22;10146;47.754;9.566;2023-02-28T15:54:32;2.70;99.90
19970;DHT22;10146;47.754;9.566;2023-02-28T15:57:05;2.50;99.90
19970;DHT22;10146;47.754;9.566;2023-02-28T15:59:36;2.30;99.90
19970;DHT22;10146;47.754;9.566;2023-02-28T16:02:32;2.40;99.90
19970;DHT22;10146;47.754;9.566;2023-02-28T16:07:40;2.30;99.90
19970;DHT22;10146;47.754;9.566;2023-02-28T16:10:08;2.40;99.90
19970;DHT22;10146;47.754;9.566;2023-02-28T16:12:36;2.30;99.90
19970;DHT22;10146;47.754;9.566;2023-02-28T16:15:17;2.30;99.90
19970;DHT22;10146;47.754;9.566;2023-02-28T16:17:43;2.20;99.90
19970;DHT22;10146;47.754;9.566;2023-02-28T16:22:46;2.00;99.90
19970;DHT22;10146;47.754;9.566;2023-02-28T16:25:18;2.00;99.90
19970;DHT22;10146;47.754;9.566;2023-02-28T16:27:47;1.90;99.90
19970;DHT22;10146;47.754;9.566;2023-02-28T16:30:20;1.70;99.90
19970;DHT22;10146;47.754;9.566;2023-02-28T16:32:47;1.70;99.90
19970;DHT22;10146;47.754;9.566;2023-02-28T16:35:13;1.80;99.90
19970;DHT22;10146;47.754;9.566;2023-02-28T16:37:40;1.80;99.90
19970;DHT22;10146;47.754;9.566;2023-02-28T16:40:08;1.70;99.90
19970;DHT22;10146;47.754;9.566;2023-02-28T16:42:34;1.60;99.90
19970;DHT22;10146;47.754;9.566;2023-02-28T16:45:00;1.60;99.90
19970;DHT22;10146;47.754;9.566;2023-02-28T16:47:26;1.50;99.90
19970;DHT22;10146;47.754;9.566;2023-02-28T16:49:52;1.50;99.90
19970;DHT22;10146;47.754;9.566;2023-02-28T16:52:17;1.50;99.90
19970;DHT22;10146;47.754;9.566;2023-02-28T16:54:43;1.40;99.90
19970;DHT22;10146;47.754;9.566;2023-02-28T16:57:22;1.30;99.90
19970;DHT22;10146;47.754;9.566;2023-02-28T16:59:49;1.20;99.90
19970;DHT22;10146;47.754;9.566;2023-02-28T17:02:18;1.20;99.90
19970;DHT22;10146;47.754;9.566;2023-02-28T17:04:45;1.20;99.90
19970;DHT22;10146;47.754;9.566;2023-02-28T17:07:12;1.10;99.90
19970;DHT22;10146;47.754;9.566;2023-02-28T17:09:38;1.10;99.90
19970;DHT22;10146;47.754;9.566;2023-02-28T17:12:04;1.10;99.90
19970;DHT22;10146;47.754;9.566;2023-02-28T17:14:29;1.10;99.90
19970;DHT22;10146;47.754;9.566;2023-02-28T17:16:55;1.10;99.90
19970;DHT22;10146;47.754;9.566;2023-02-28T17:19:21;1.10;99.90
19970;DHT22;10146;47.754;9.566;2023-02-28T17:21:46;1.00;99.90
19970;DHT22;10146;47.754;9.566;2023-02-28T17:24:12;0.90;99.90
19970;DHT22;10146;47.754;9.566;2023-02-28T17:26:42;0.90;99.90
19970;DHT22;10146;47.754;9.566;2023-02-28T17:29:18;0.90;99.90
19970;DHT22;10146;47.754;9.566;2023-02-28T17:31:44;0.90;99.90
19970;DHT22;10146;47.754;9.566;2023-02-28T17:34:09;0.80;99.90
19970;DHT22;10146;47.754;9.566;2023-02-28T17:36:35;0.80;99.90
19970;DHT22;10146;47.754;9.566;2023-02-28T17:39:03;0.70;99.90
19970;DHT22;10146;47.754;9.566;2023-02-28T17:41:30;0.70;99.90
19970;DHT22;10146;47.754;9.566;2023-02-28T17:43:57;0.60;99.90
19970;DHT22;10146;47.754;9.566;2023-02-28T17:46:24;0.60;99.90
19970;DHT22;10146;47.754;9.566;2023-02-28T17:48:51;0.30;99.90
19970;DHT22;10146;47.754;9.566;2023-02-28T17:51:19;0.40;99.90
19970;DHT22;10146;47.754;9.566;2023-02-28T17:53:44;0.40;99.90
19970;DHT22;10146;47.754;9.566;2023-02-28T17:56:19;0.40;99.90
19970;DHT22;10146;47.754;9.566;2023-02-28T17:58:46;0.30;99.90
19970;DHT22;10146;47.754;9.566;2023-02-28T18:01:11;0.20;99.90
19970;DHT22;10146;47.754;9.566;2023-02-28T18:03:38;0.30;99.90
19970;DHT22;10146;47.754;9.566;2023-02-28T18:06:04;0.20;99.90
19970;DHT22;10146;47.754;9.566;2023-02-28T18:08:30;0.10;99.90
19970;DHT22;10146;47.754;9.566;2023-02-28T18:10:58;0.20;99.90
19970;DHT22;10146;47.754;9.566;2023-02-28T18:13:24;0.10;99.90
19970;DHT22;10146;47.754;9.566;2023-02-28T18:15:50;0.10;99.90
19970;DHT22;10146;47.754;9.566;2023-02-28T18:18:15;0.20;99.90
19970;DHT22;10146;47.754;9.566;2023-02-28T18:20:41;0.20;99.90
19970;DHT22;10146;47.754;9.566;2023-02-28T18:23:07;0.10;99.90
19970;DHT22;10146;47.754;9.566;2023-02-28T18:25:32;-0.10;99.90
19970;DHT22;10146;47.754;9.566;2023-02-28T18:27:58;-0.10;99.90
19970;DHT22;10146;47.754;9.566;2023-02-28T18:30:26;-0.10;99.90